sensor_id;sensor_type;location;lat;lon;timestamp;P1;durP1;ratioP1;P2;durP2;ratioP2
2305;SDS011;1161;51.922;8.896;2022-07-22T00:00:28;51.63;;;25.57;;
2305;SDS011;1161;51.922;8.896;2022-07-22T00:02:55;56.73;;;28.37;;
2305;SDS011;1161;51.922;8.896;2022-07-22T00:05:23;52.77;;;26.40;;
2305;SDS011;1161;51.922;8.896;2022-07-22T00:07:49;58.80;;;28.13;;
2305;SDS011;1161;51.922;8.896;2022-07-22T00:10:16;54.33;;;28.03;;
2305;SDS011;1161;51.922;8.896;2022-07-22T00:12:43;50.90;;;25.63;;
2305;SDS011;1161;51.922;8.896;2022-07-22T00:15:10;57.07;;;27.70;;
2305;SDS011;1161;51.922;8.896;2022-07-22T00:17:37;53.00;;;28.43;;
2305;SDS011;1161;51.922;8.896;2022-07-22T00:20:04;51.37;;;26.77;;
2305;SDS011;1161;51.922;8.896;2022-07-22T00:22:34;48.33;;;25.00;;
2305;SDS011;1161;51.922;8.896;2022-07-22T00:25:01;52.27;;;26.43;;
2305;SDS011;1161;51.922;8.896;2022-07-22T00:27:28;50.90;;;25.93;;
2305;SDS011;1161;51.922;8.896;2022-07-22T00:29:55;50.93;;;25.50;;
2305;SDS011;1161;51.922;8.896;2022-07-22T00:32:22;47.63;;;24.57;;
2305;SDS011;1161;51.922;8.896;2022-07-22T00:34:48;42.20;;;20.50;;
2305;SDS011;1161;51.922;8.896;2022-07-22T00:37:15;39.60;;;20.50;;
2305;SDS011;1161;51.922;8.896;2022-07-22T00:39:43;38.80;;;20.90;;
2305;SDS011;1161;51.922;8.896;2022-07-22T00:42:09;35.53;;;21.23;;
2305;SDS011;1161;51.922;8.896;2022-07-22T00:44:36;41.80;;;20.20;;
2305;SDS011;1161;51.922;8.896;2022-07-22T00:47:03;40.73;;;19.60;;
2305;SDS011;1161;51.922;8.896;2022-07-22T00:49:30;38.47;;;19.50;;
2305;SDS011;1161;51.922;8.896;2022-07-22T00:51:56;35.23;;;16.23;;
2305;SDS011;1161;51.922;8.896;2022-07-22T00:54:23;33.77;;;14.80;;
2305;SDS011;1161;51.922;8.896;2022-07-22T00:56:51;26.47;;;14.73;;
2305;SDS011;1161;51.922;8.896;2022-07-22T00:59:19;21.80;;;11.80;;
2305;SDS011;1161;51.922;8.896;2022-07-22T01:01:45;23.27;;;12.33;;
2305;SDS011;1161;51.922;8.896;2022-07-22T01:04:12;18.00;;;9.87;;
2305;SDS011;1161;51.922;8.896;2022-07-22T01:06:39;20.37;;;9.00;;
2305;SDS011;1161;51.922;8.896;2022-07-22T01:09:10;14.47;;;9.27;;
2305;SDS011;1161;51.922;8.896;2022-07-22T01:11:36;14.60;;;8.83;;
2305;SDS011;1161;51.922;8.896;2022-07-22T01:14:04;21.53;;;11.07;;
2305;SDS011;1161;51.922;8.896;2022-07-22T01:16:31;20.77;;;12.13;;
2305;SDS011;1161;51.922;8.896;2022-07-22T01:18:58;22.97;;;12.37;;
2305;SDS011;1161;51.922;8.896;2022-07-22T01:21:26;20.93;;;13.07;;
2305;SDS011;1161;51.922;8.896;2022-07-22T01:23:53;23.37;;;13.60;;
2305;SDS011;1161;51.922;8.896;2022-07-22T01:26:19;22.23;;;13.00;;
2305;SDS011;1161;51.922;8.896;2022-07-22T01:28:46;21.60;;;14.33;;
2305;SDS011;1161;51.922;8.896;2022-07-22T01:31:13;19.03;;;11.40;;
2305;SDS011;1161;51.922;8.896;2022-07-22T01:33:40;29.63;;;11.83;;
2305;SDS011;1161;51.922;8.896;2022-07-22T01:36:07;28.10;;;15.13;;
2305;SDS011;1161;51.922;8.896;2022-07-22T01:38:35;23.47;;;11.50;;
2305;SDS011;1161;51.922;8.896;2022-07-22T01:41:02;17.57;;;10.47;;
2305;SDS011;1161;51.922;8.896;2022-07-22T01:43:29;19.77;;;11.30;;
2305;SDS011;1161;51.922;8.896;2022-07-22T01:45:56;23.40;;;9.93;;
2305;SDS011;1161;51.922;8.896;2022-07-22T01:48:23;13.50;;;8.93;;
2305;SDS011;1161;51.922;8.896;2022-07-22T01:50:50;20.20;;;10.83;;
2305;SDS011;1161;51.922;8.896;2022-07-22T01:53:17;22.70;;;11.77;;
2305;SDS011;1161;51.922;8.896;2022-07-22T01:55:46;26.07;;;13.07;;
2305;SDS011;1161;51.922;8.896;2022-07-22T01:58:13;22.83;;;10.93;;
2305;SDS011;1161;51.922;8.896;2022-07-22T02:00:40;29.43;;;11.00;;
2305;SDS011;1161;51.922;8.896;2022-07-22T02:03:07;18.07;;;9.23;;
2305;SDS011;1161;51.922;8.896;2022-07-22T02:05:35;24.23;;;10.83;;
2305;SDS011;1161;51.922;8.896;2022-07-22T02:08:03;24.63;;;11.80;;
2305;SDS011;1161;51.922;8.896;2022-07-22T02:10:31;19.80;;;11.50;;
2305;SDS011;1161;51.922;8.896;2022-07-22T02:12:59;21.57;;;9.60;;
2305;SDS011;1161;51.922;8.896;2022-07-22T02:15:26;24.47;;;11.30;;
2305;SDS011;1161;51.922;8.896;2022-07-22T02:17:54;21.73;;;10.43;;
2305;SDS011;1161;51.922;8.896;2022-07-22T02:20:21;20.27;;;10.57;;
2305;SDS011;1161;51.922;8.896;2022-07-22T02:22:48;15.07;;;9.73;;
2305;SDS011;1161;51.922;8.896;2022-07-22T02:25:15;14.20;;;9.37;;
2305;SDS011;1161;51.922;8.896;2022-07-22T02:27:41;23.97;;;10.10;;
2305;SDS011;1161;51.922;8.896;2022-07-22T02:30:10;22.77;;;11.17;;
2305;SDS011;1161;51.922;8.896;2022-07-22T02:32:38;18.27;;;11.77;;
2305;SDS011;1161;51.922;8.896;2022-07-22T02:35:05;23.23;;;9.70;;
2305;SDS011;1161;51.922;8.896;2022-07-22T02:37:32;16.10;;;8.80;;
2305;SDS011;1161;51.922;8.896;2022-07-22T02:40:01;18.23;;;9.77;;
2305;SDS011;1161;51.922;8.896;2022-07-22T02:42:28;17.77;;;9.73;;
2305;SDS011;1161;51.922;8.896;2022-07-22T02:44:54;16.03;;;8.17;;
2305;SDS011;1161;51.922;8.896;2022-07-22T02:47:22;13.30;;;7.53;;
2305;SDS011;1161;51.922;8.896;2022-07-22T02:49:49;9.60;;;6.80;;
2305;SDS011;1161;51.922;8.896;2022-07-22T02:52:16;13.70;;;7.20;;
2305;SDS011;1161;51.922;8.896;2022-07-22T02:54:44;16.80;;;7.57;;
2305;SDS011;1161;51.922;8.896;2022-07-22T02:57:10;17.63;;;7.03;;
2305;SDS011;1161;51.922;8.896;2022-07-22T02:59:38;13.97;;;7.90;;
2305;SDS011;1161;51.922;8.896;2022-07-22T03:02:05;16.63;;;8.00;;
2305;SDS011;1161;51.922;8.896;2022-07-22T03:04:33;16.10;;;9.20;;
2305;SDS011;1161;51.922;8.896;2022-07-22T03:07:00;17.97;;;8.40;;
2305;SDS011;1161;51.922;8.896;2022-07-22T03:09:28;23.60;;;7.97;;
2305;SDS011;1161;51.922;8.896;2022-07-22T03:11:56;14.30;;;7.70;;
2305;SDS011;1161;51.922;8.896;2022-07-22T03:14:23;13.43;;;7.40;;
2305;SDS011;1161;51.922;8.896;2022-07-22T03:16:50;11.33;;;6.93;;
2305;SDS011;1161;51.922;8.896;2022-07-22T03:19:17;11.17;;;6.13;;
2305;SDS011;1161;51.922;8.896;2022-07-22T03:21:47;8.90;;;5.77;;
2305;SDS011;1161;51.922;8.896;2022-07-22T03:24:14;7.53;;;4.70;;
2305;SDS011;1161;51.922;8.896;2022-07-22T03:26:44;12.73;;;6.03;;
2305;SDS011;1161;51.922;8.896;2022-07-22T03:29:10;10.20;;;5.23;;
2305;SDS011;1161;51.922;8.896;2022-07-22T03:31:37;16.77;;;7.23;;
2305;SDS011;1161;51.922;8.896;2022-07-22T03:34:04;16.90;;;7.30;;
2305;SDS011;1161;51.922;8.896;2022-07-22T03:36:31;16.73;;;7.30;;
2305;SDS011;1161;51.922;8.896;2022-07-22T03:38:59;16.70;;;7.90;;
2305;SDS011;1161;51.922;8.896;2022-07-22T03:41:27;16.30;;;6.57;;
2305;SDS011;1161;51.922;8.896;2022-07-22T03:43:54;17.90;;;9.00;;
2305;SDS011;1161;51.922;8.896;2022-07-22T03:46:21;13.73;;;7.03;;
2305;SDS011;1161;51.922;8.896;2022-07-22T03:48:48;14.83;;;6.23;;
2305;SDS011;1161;51.922;8.896;2022-07-22T03:51:16;17.37;;;7.90;;
2305;SDS011;1161;51.922;8.896;2022-07-22T03:53:43;17.37;;;7.47;;
2305;SDS011;1161;51.922;8.896;2022-07-22T03:56:13;12.83;;;6.30;;
2305;SDS011;1161;51.922;8.896;2022-07-22T03:58:40;9.87;;;7.37;;
2305;SDS011;1161;51.922;8.896;2022-07-22T04:01:08;19.17;;;7.23;;
2305;SDS011;1161;51.922;8.896;2022-07-22T04:03:35;12.83;;;6.50;;
2305;SDS011;1161;51.922;8.896;2022-07-22T04:06:03;12.07;;;5.50;;
2305;SDS011;1161;51.922;8.896;2022-07-22T04:08:32;14.43;;;7.03;;
2305;SDS011;1161;51.922;8.896;2022-07-22T04:11:00;10.27;;;6.60;;
2305;SDS011;1161;51.922;8.896;2022-07-22T04:13:28;12.93;;;6.10;;
2305;SDS011;1161;51.922;8.896;2022-07-22T04:15:55;10.90;;;7.13;;
2305;SDS011;1161;51.922;8.896;2022-07-22T04:18:23;16.07;;;6.93;;
2305;SDS011;1161;51.922;8.896;2022-07-22T04:20:50;12.93;;;7.93;;
2305;SDS011;1161;51.922;8.896;2022-07-22T04:23:16;13.87;;;7.50;;
2305;SDS011;1161;51.922;8.896;2022-07-22T04:25:44;12.70;;;7.57;;
2305;SDS011;1161;51.922;8.896;2022-07-22T04:28:11;18.13;;;7.30;;
2305;SDS011;1161;51.922;8.896;2022-07-22T04:30:40;15.10;;;7.00;;
2305;SDS011;1161;51.922;8.896;2022-07-22T04:33:08;17.23;;;6.90;;
2305;SDS011;1161;51.922;8.896;2022-07-22T04:35:34;17.07;;;6.77;;
2305;SDS011;1161;51.922;8.896;2022-07-22T04:38:02;10.10;;;6.63;;
2305;SDS011;1161;51.922;8.896;2022-07-22T04:40:29;18.37;;;6.03;;
2305;SDS011;1161;51.922;8.896;2022-07-22T04:42:58;19.97;;;6.07;;
2305;SDS011;1161;51.922;8.896;2022-07-22T04:45:25;12.50;;;5.00;;
2305;SDS011;1161;51.922;8.896;2022-07-22T04:47:53;9.43;;;5.17;;
2305;SDS011;1161;51.922;8.896;2022-07-22T04:50:20;12.67;;;6.10;;
2305;SDS011;1161;51.922;8.896;2022-07-22T04:52:47;15.83;;;5.00;;
2305;SDS011;1161;51.922;8.896;2022-07-22T04:55:14;11.50;;;6.10;;
2305;SDS011;1161;51.922;8.896;2022-07-22T04:57:41;21.97;;;6.60;;
2305;SDS011;1161;51.922;8.896;2022-07-22T05:00:08;6.83;;;4.20;;
2305;SDS011;1161;51.922;8.896;2022-07-22T05:02:36;9.20;;;5.40;;
2305;SDS011;1161;51.922;8.896;2022-07-22T05:05:05;18.43;;;5.50;;
2305;SDS011;1161;51.922;8.896;2022-07-22T05:07:32;11.57;;;4.33;;
2305;SDS011;1161;51.922;8.896;2022-07-22T05:09:59;10.80;;;5.10;;
2305;SDS011;1161;51.922;8.896;2022-07-22T05:12:26;7.60;;;4.67;;
2305;SDS011;1161;51.922;8.896;2022-07-22T05:14:54;6.73;;;4.70;;
2305;SDS011;1161;51.922;8.896;2022-07-22T05:17:21;13.23;;;5.70;;
2305;SDS011;1161;51.922;8.896;2022-07-22T05:19:47;10.00;;;5.20;;
2305;SDS011;1161;51.922;8.896;2022-07-22T05:22:16;8.47;;;4.60;;
2305;SDS011;1161;51.922;8.896;2022-07-22T05:24:43;10.67;;;4.47;;
2305;SDS011;1161;51.922;8.896;2022-07-22T05:27:10;5.73;;;4.47;;
2305;SDS011;1161;51.922;8.896;2022-07-22T05:29:38;10.80;;;5.50;;
2305;SDS011;1161;51.922;8.896;2022-07-22T05:32:05;7.17;;;5.10;;
2305;SDS011;1161;51.922;8.896;2022-07-22T05:34:32;7.80;;;4.93;;
2305;SDS011;1161;51.922;8.896;2022-07-22T05:36:59;9.03;;;4.97;;
2305;SDS011;1161;51.922;8.896;2022-07-22T05:39:28;7.20;;;4.70;;
2305;SDS011;1161;51.922;8.896;2022-07-22T05:41:55;9.23;;;4.80;;
2305;SDS011;1161;51.922;8.896;2022-07-22T05:44:22;8.97;;;4.93;;
2305;SDS011;1161;51.922;8.896;2022-07-22T05:46:49;14.13;;;5.73;;
2305;SDS011;1161;51.922;8.896;2022-07-22T05:49:16;10.03;;;5.00;;
2305;SDS011;1161;51.922;8.896;2022-07-22T05:51:43;10.33;;;4.80;;
2305;SDS011;1161;51.922;8.896;2022-07-22T05:54:10;9.97;;;5.80;;
2305;SDS011;1161;51.922;8.896;2022-07-22T05:56:38;7.60;;;4.53;;
2305;SDS011;1161;51.922;8.896;2022-07-22T05:59:04;14.43;;;5.47;;
2305;SDS011;1161;51.922;8.896;2022-07-22T06:01:31;6.93;;;4.67;;
2305;SDS011;1161;51.922;8.896;2022-07-22T06:03:58;10.27;;;4.23;;
2305;SDS011;1161;51.922;8.896;2022-07-22T06:06:25;11.03;;;6.00;;
2305;SDS011;1161;51.922;8.896;2022-07-22T06:08:52;8.70;;;4.87;;
2305;SDS011;1161;51.922;8.896;2022-07-22T06:11:19;7.40;;;5.17;;
2305;SDS011;1161;51.922;8.896;2022-07-22T06:13:47;13.13;;;5.00;;
2305;SDS011;1161;51.922;8.896;2022-07-22T06:16:13;10.30;;;5.27;;
2305;SDS011;1161;51.922;8.896;2022-07-22T06:18:40;5.33;;;4.13;;
2305;SDS011;1161;51.922;8.896;2022-07-22T06:21:07;8.07;;;4.70;;
2305;SDS011;1161;51.922;8.896;2022-07-22T06:23:34;10.53;;;6.53;;
2305;SDS011;1161;51.922;8.896;2022-07-22T06:26:00;7.30;;;3.97;;
2305;SDS011;1161;51.922;8.896;2022-07-22T06:28:27;9.33;;;5.10;;
2305;SDS011;1161;51.922;8.896;2022-07-22T06:30:55;15.13;;;5.33;;
2305;SDS011;1161;51.922;8.896;2022-07-22T06:33:22;10.17;;;5.77;;
2305;SDS011;1161;51.922;8.896;2022-07-22T06:35:48;10.00;;;5.43;;
2305;SDS011;1161;51.922;8.896;2022-07-22T06:38:15;12.50;;;5.67;;
2305;SDS011;1161;51.922;8.896;2022-07-22T06:40:42;7.87;;;4.50;;
2305;SDS011;1161;51.922;8.896;2022-07-22T06:43:08;6.50;;;4.50;;
2305;SDS011;1161;51.922;8.896;2022-07-22T06:45:36;7.97;;;4.97;;
2305;SDS011;1161;51.922;8.896;2022-07-22T06:48:04;7.67;;;4.40;;
2305;SDS011;1161;51.922;8.896;2022-07-22T06:50:32;7.87;;;4.47;;
2305;SDS011;1161;51.922;8.896;2022-07-22T06:52:59;5.47;;;4.40;;
2305;SDS011;1161;51.922;8.896;2022-07-22T06:55:25;6.53;;;4.20;;
2305;SDS011;1161;51.922;8.896;2022-07-22T06:57:52;7.10;;;5.00;;
2305;SDS011;1161;51.922;8.896;2022-07-22T07:00:18;12.60;;;4.90;;
2305;SDS011;1161;51.922;8.896;2022-07-22T07:02:45;12.03;;;6.30;;
2305;SDS011;1161;51.922;8.896;2022-07-22T07:05:13;10.27;;;5.67;;
2305;SDS011;1161;51.922;8.896;2022-07-22T07:07:40;20.47;;;6.97;;
2305;SDS011;1161;51.922;8.896;2022-07-22T07:10:08;7.10;;;4.83;;
2305;SDS011;1161;51.922;8.896;2022-07-22T07:12:36;9.63;;;5.43;;
2305;SDS011;1161;51.922;8.896;2022-07-22T07:15:03;7.47;;;4.93;;
2305;SDS011;1161;51.922;8.896;2022-07-22T07:17:31;14.87;;;5.30;;
2305;SDS011;1161;51.922;8.896;2022-07-22T07:19:57;6.30;;;5.00;;
2305;SDS011;1161;51.922;8.896;2022-07-22T07:22:25;10.03;;;5.50;;
2305;SDS011;1161;51.922;8.896;2022-07-22T07:24:52;10.43;;;5.63;;
2305;SDS011;1161;51.922;8.896;2022-07-22T07:27:19;9.10;;;4.73;;
2305;SDS011;1161;51.922;8.896;2022-07-22T07:29:45;12.13;;;6.17;;
2305;SDS011;1161;51.922;8.896;2022-07-22T07:32:12;8.30;;;5.40;;
2305;SDS011;1161;51.922;8.896;2022-07-22T07:34:39;10.23;;;5.03;;
2305;SDS011;1161;51.922;8.896;2022-07-22T07:37:06;11.37;;;5.80;;
2305;SDS011;1161;51.922;8.896;2022-07-22T07:39:34;8.40;;;5.97;;
2305;SDS011;1161;51.922;8.896;2022-07-22T07:42:01;15.07;;;5.73;;
2305;SDS011;1161;51.922;8.896;2022-07-22T07:44:28;10.50;;;6.10;;
2305;SDS011;1161;51.922;8.896;2022-07-22T07:46:55;10.37;;;5.87;;
2305;SDS011;1161;51.922;8.896;2022-07-22T07:49:22;16.63;;;7.10;;
2305;SDS011;1161;51.922;8.896;2022-07-22T07:51:48;10.27;;;6.70;;
2305;SDS011;1161;51.922;8.896;2022-07-22T07:54:15;17.80;;;5.10;;
2305;SDS011;1161;51.922;8.896;2022-07-22T07:56:43;6.60;;;4.70;;
2305;SDS011;1161;51.922;8.896;2022-07-22T07:59:10;12.83;;;6.07;;
2305;SDS011;1161;51.922;8.896;2022-07-22T08:01:36;18.07;;;6.87;;
2305;SDS011;1161;51.922;8.896;2022-07-22T08:04:04;9.80;;;5.37;;
2305;SDS011;1161;51.922;8.896;2022-07-22T08:06:31;21.70;;;5.57;;
2305;SDS011;1161;51.922;8.896;2022-07-22T08:08:57;9.13;;;4.83;;
2305;SDS011;1161;51.922;8.896;2022-07-22T08:11:24;13.50;;;4.83;;
2305;SDS011;1161;51.922;8.896;2022-07-22T08:13:52;7.50;;;3.90;;
2305;SDS011;1161;51.922;8.896;2022-07-22T08:16:19;6.30;;;4.00;;
2305;SDS011;1161;51.922;8.896;2022-07-22T08:18:45;6.73;;;4.23;;
2305;SDS011;1161;51.922;8.896;2022-07-22T08:21:12;14.73;;;4.13;;
2305;SDS011;1161;51.922;8.896;2022-07-22T08:23:39;5.37;;;3.80;;
2305;SDS011;1161;51.922;8.896;2022-07-22T08:26:06;8.50;;;5.00;;
2305;SDS011;1161;51.922;8.896;2022-07-22T08:28:33;11.53;;;4.40;;
2305;SDS011;1161;51.922;8.896;2022-07-22T08:31:01;7.30;;;4.23;;
2305;SDS011;1161;51.922;8.896;2022-07-22T08:33:27;13.40;;;3.90;;
2305;SDS011;1161;51.922;8.896;2022-07-22T08:35:54;14.57;;;6.23;;
2305;SDS011;1161;51.922;8.896;2022-07-22T08:38:20;9.23;;;4.50;;
2305;SDS011;1161;51.922;8.896;2022-07-22T08:40:48;6.20;;;4.00;;
2305;SDS011;1161;51.922;8.896;2022-07-22T08:43:15;3.83;;;3.20;;
2305;SDS011;1161;51.922;8.896;2022-07-22T08:45:41;4.20;;;3.33;;
2305;SDS011;1161;51.922;8.896;2022-07-22T08:48:09;2.90;;;2.67;;
2305;SDS011;1161;51.922;8.896;2022-07-22T08:50:36;5.90;;;3.53;;
2305;SDS011;1161;51.922;8.896;2022-07-22T08:53:03;6.40;;;3.10;;
2305;SDS011;1161;51.922;8.896;2022-07-22T08:55:30;7.50;;;2.47;;
2305;SDS011;1161;51.922;8.896;2022-07-22T08:57:56;9.63;;;4.07;;
2305;SDS011;1161;51.922;8.896;2022-07-22T09:00:23;5.03;;;3.40;;
2305;SDS011;1161;51.922;8.896;2022-07-22T09:02:49;6.87;;;4.30;;
2305;SDS011;1161;51.922;8.896;2022-07-22T09:05:18;6.87;;;4.20;;
2305;SDS011;1161;51.922;8.896;2022-07-22T09:07:45;9.17;;;4.53;;
2305;SDS011;1161;51.922;8.896;2022-07-22T09:10:13;6.40;;;4.10;;
2305;SDS011;1161;51.922;8.896;2022-07-22T09:12:54;10.20;;;5.07;;
2305;SDS011;1161;51.922;8.896;2022-07-22T09:15:27;7.60;;;3.87;;
2305;SDS011;1161;51.922;8.896;2022-07-22T09:17:54;11.23;;;3.93;;
2305;SDS011;1161;51.922;8.896;2022-07-22T09:20:22;10.60;;;5.40;;
2305;SDS011;1161;51.922;8.896;2022-07-22T09:22:50;11.77;;;4.43;;
2305;SDS011;1161;51.922;8.896;2022-07-22T09:25:18;7.50;;;4.77;;
2305;SDS011;1161;51.922;8.896;2022-07-22T09:27:46;8.60;;;5.40;;
2305;SDS011;1161;51.922;8.896;2022-07-22T09:30:13;10.47;;;5.60;;
2305;SDS011;1161;51.922;8.896;2022-07-22T09:32:40;12.57;;;6.37;;
2305;SDS011;1161;51.922;8.896;2022-07-22T09:35:08;9.53;;;5.30;;
2305;SDS011;1161;51.922;8.896;2022-07-22T09:37:37;10.00;;;5.67;;
2305;SDS011;1161;51.922;8.896;2022-07-22T09:40:13;6.80;;;5.00;;
2305;SDS011;1161;51.922;8.896;2022-07-22T09:42:43;11.10;;;4.80;;
2305;SDS011;1161;51.922;8.896;2022-07-22T09:45:11;9.67;;;5.67;;
2305;SDS011;1161;51.922;8.896;2022-07-22T09:47:40;9.87;;;4.87;;
2305;SDS011;1161;51.922;8.896;2022-07-22T09:50:15;8.40;;;5.27;;
2305;SDS011;1161;51.922;8.896;2022-07-22T09:52:45;19.90;;;4.60;;
2305;SDS011;1161;51.922;8.896;2022-07-22T09:55:13;8.03;;;4.30;;
2305;SDS011;1161;51.922;8.896;2022-07-22T09:57:40;5.93;;;4.20;;
2305;SDS011;1161;51.922;8.896;2022-07-22T10:00:07;6.03;;;3.67;;
2305;SDS011;1161;51.922;8.896;2022-07-22T10:02:36;5.60;;;4.17;;
2305;SDS011;1161;51.922;8.896;2022-07-22T10:05:08;5.17;;;3.80;;
2305;SDS011;1161;51.922;8.896;2022-07-22T10:07:37;22.37;;;3.73;;
2305;SDS011;1161;51.922;8.896;2022-07-22T10:10:06;7.83;;;3.50;;
2305;SDS011;1161;51.922;8.896;2022-07-22T10:12:34;5.23;;;3.20;;
2305;SDS011;1161;51.922;8.896;2022-07-22T10:15:02;5.33;;;3.80;;
2305;SDS011;1161;51.922;8.896;2022-07-22T10:17:30;7.07;;;4.30;;
2305;SDS011;1161;51.922;8.896;2022-07-22T10:19:57;5.20;;;2.90;;
2305;SDS011;1161;51.922;8.896;2022-07-22T10:25:20;3.13;;;2.83;;
2305;SDS011;1161;51.922;8.896;2022-07-22T10:27:49;10.40;;;4.20;;
2305;SDS011;1161;51.922;8.896;2022-07-22T10:30:18;4.43;;;4.03;;
2305;SDS011;1161;51.922;8.896;2022-07-22T10:32:47;4.50;;;3.13;;
2305;SDS011;1161;51.922;8.896;2022-07-22T10:35:28;1.73;;;1.60;;
2305;SDS011;1161;51.922;8.896;2022-07-22T10:37:56;3.20;;;2.10;;
2305;SDS011;1161;51.922;8.896;2022-07-22T10:40:49;2.30;;;2.00;;
2305;SDS011;1161;51.922;8.896;2022-07-22T10:43:18;2.70;;;2.03;;
2305;SDS011;1161;51.922;8.896;2022-07-22T10:45:47;2.63;;;2.43;;
2305;SDS011;1161;51.922;8.896;2022-07-22T10:48:16;3.93;;;2.47;;
2305;SDS011;1161;51.922;8.896;2022-07-22T10:50:54;3.00;;;2.10;;
2305;SDS011;1161;51.922;8.896;2022-07-22T10:53:41;8.23;;;3.00;;
2305;SDS011;1161;51.922;8.896;2022-07-22T10:56:25;4.37;;;3.37;;
2305;SDS011;1161;51.922;8.896;2022-07-22T10:58:53;5.80;;;3.77;;
2305;SDS011;1161;51.922;8.896;2022-07-22T11:01:22;5.90;;;3.53;;
2305;SDS011;1161;51.922;8.896;2022-07-22T11:03:51;7.20;;;3.63;;
2305;SDS011;1161;51.922;8.896;2022-07-22T11:06:26;4.63;;;3.33;;
2305;SDS011;1161;51.922;8.896;2022-07-22T11:08:54;8.63;;;4.27;;
2305;SDS011;1161;51.922;8.896;2022-07-22T11:11:37;6.60;;;4.20;;
2305;SDS011;1161;51.922;8.896;2022-07-22T11:14:18;6.40;;;4.00;;
2305;SDS011;1161;51.922;8.896;2022-07-22T11:16:46;10.50;;;5.37;;
2305;SDS011;1161;51.922;8.896;2022-07-22T11:19:19;11.87;;;4.83;;
2305;SDS011;1161;51.922;8.896;2022-07-22T11:21:48;8.10;;;4.90;;
2305;SDS011;1161;51.922;8.896;2022-07-22T11:24:16;21.33;;;6.50;;
2305;SDS011;1161;51.922;8.896;2022-07-22T11:26:45;9.27;;;4.83;;
2305;SDS011;1161;51.922;8.896;2022-07-22T11:29:15;11.40;;;5.37;;
2305;SDS011;1161;51.922;8.896;2022-07-22T11:31:43;14.90;;;6.10;;
2305;SDS011;1161;51.922;8.896;2022-07-22T11:34:11;16.27;;;6.10;;
2305;SDS011;1161;51.922;8.896;2022-07-22T11:36:39;11.07;;;5.57;;
2305;SDS011;1161;51.922;8.896;2022-07-22T11:39:07;17.00;;;6.57;;
2305;SDS011;1161;51.922;8.896;2022-07-22T11:41:35;12.63;;;7.10;;
2305;SDS011;1161;51.922;8.896;2022-07-22T11:44:04;9.90;;;4.57;;
2305;SDS011;1161;51.922;8.896;2022-07-22T11:46:34;12.87;;;6.60;;
2305;SDS011;1161;51.922;8.896;2022-07-22T11:49:02;9.10;;;5.67;;
2305;SDS011;1161;51.922;8.896;2022-07-22T11:51:30;14.57;;;5.80;;
2305;SDS011;1161;51.922;8.896;2022-07-22T11:53:58;13.23;;;5.17;;
2305;SDS011;1161;51.922;8.896;2022-07-22T11:56:25;9.80;;;6.10;;
2305;SDS011;1161;51.922;8.896;2022-07-22T11:58:53;8.47;;;5.50;;
2305;SDS011;1161;51.922;8.896;2022-07-22T12:01:23;10.10;;;5.87;;
2305;SDS011;1161;51.922;8.896;2022-07-22T12:03:51;8.90;;;5.53;;
2305;SDS011;1161;51.922;8.896;2022-07-22T12:06:21;17.13;;;7.20;;
2305;SDS011;1161;51.922;8.896;2022-07-22T12:08:49;14.70;;;7.00;;
2305;SDS011;1161;51.922;8.896;2022-07-22T12:11:18;11.77;;;6.50;;
2305;SDS011;1161;51.922;8.896;2022-07-22T12:13:47;12.20;;;7.70;;
2305;SDS011;1161;51.922;8.896;2022-07-22T12:16:19;12.37;;;6.93;;
2305;SDS011;1161;51.922;8.896;2022-07-22T12:18:53;11.17;;;6.80;;
2305;SDS011;1161;51.922;8.896;2022-07-22T12:21:21;17.07;;;5.43;;
2305;SDS011;1161;51.922;8.896;2022-07-22T12:23:49;13.03;;;7.40;;
2305;SDS011;1161;51.922;8.896;2022-07-22T12:26:17;8.83;;;5.30;;
2305;SDS011;1161;51.922;8.896;2022-07-22T12:28:44;14.53;;;6.50;;
2305;SDS011;1161;51.922;8.896;2022-07-22T12:31:11;18.63;;;7.60;;
2305;SDS011;1161;51.922;8.896;2022-07-22T12:33:40;11.00;;;6.50;;
2305;SDS011;1161;51.922;8.896;2022-07-22T12:36:13;15.53;;;6.23;;
2305;SDS011;1161;51.922;8.896;2022-07-22T12:38:39;12.53;;;7.00;;
2305;SDS011;1161;51.922;8.896;2022-07-22T12:41:23;12.40;;;6.50;;
2305;SDS011;1161;51.922;8.896;2022-07-22T12:43:50;16.57;;;7.43;;
2305;SDS011;1161;51.922;8.896;2022-07-22T12:46:17;14.53;;;6.10;;
2305;SDS011;1161;51.922;8.896;2022-07-22T12:48:49;17.20;;;7.73;;
2305;SDS011;1161;51.922;8.896;2022-07-22T12:51:17;15.37;;;7.47;;
2305;SDS011;1161;51.922;8.896;2022-07-22T12:53:43;9.10;;;6.23;;
2305;SDS011;1161;51.922;8.896;2022-07-22T12:56:10;14.33;;;8.33;;
2305;SDS011;1161;51.922;8.896;2022-07-22T12:58:37;11.57;;;7.97;;
2305;SDS011;1161;51.922;8.896;2022-07-22T13:01:06;14.17;;;7.67;;
2305;SDS011;1161;51.922;8.896;2022-07-22T13:03:33;16.67;;;7.43;;
2305;SDS011;1161;51.922;8.896;2022-07-22T13:06:03;14.60;;;8.03;;
2305;SDS011;1161;51.922;8.896;2022-07-22T13:08:30;14.47;;;7.23;;
2305;SDS011;1161;51.922;8.896;2022-07-22T13:10:58;14.87;;;7.27;;
2305;SDS011;1161;51.922;8.896;2022-07-22T13:13:24;20.00;;;8.30;;
2305;SDS011;1161;51.922;8.896;2022-07-22T13:15:51;12.40;;;7.30;;
2305;SDS011;1161;51.922;8.896;2022-07-22T13:18:17;17.07;;;7.57;;
2305;SDS011;1161;51.922;8.896;2022-07-22T13:20:45;14.43;;;7.90;;
2305;SDS011;1161;51.922;8.896;2022-07-22T13:23:13;18.57;;;8.03;;
2305;SDS011;1161;51.922;8.896;2022-07-22T13:25:40;13.23;;;5.70;;
2305;SDS011;1161;51.922;8.896;2022-07-22T13:28:07;16.13;;;6.67;;
2305;SDS011;1161;51.922;8.896;2022-07-22T13:30:34;15.80;;;7.67;;
2305;SDS011;1161;51.922;8.896;2022-07-22T13:33:01;15.37;;;6.30;;
2305;SDS011;1161;51.922;8.896;2022-07-22T13:35:28;14.10;;;7.10;;
2305;SDS011;1161;51.922;8.896;2022-07-22T13:37:55;13.23;;;6.50;;
2305;SDS011;1161;51.922;8.896;2022-07-22T13:40:24;12.57;;;8.70;;
2305;SDS011;1161;51.922;8.896;2022-07-22T13:42:51;13.47;;;7.90;;
2305;SDS011;1161;51.922;8.896;2022-07-22T13:45:17;9.83;;;6.80;;
2305;SDS011;1161;51.922;8.896;2022-07-22T13:47:45;11.77;;;6.60;;
2305;SDS011;1161;51.922;8.896;2022-07-22T13:50:11;13.00;;;6.57;;
2305;SDS011;1161;51.922;8.896;2022-07-22T13:52:38;11.33;;;6.00;;
2305;SDS011;1161;51.922;8.896;2022-07-22T13:55:05;12.97;;;7.03;;
2305;SDS011;1161;51.922;8.896;2022-07-22T13:57:34;8.77;;;6.40;;
2305;SDS011;1161;51.922;8.896;2022-07-22T14:00:01;9.27;;;6.17;;
2305;SDS011;1161;51.922;8.896;2022-07-22T14:02:38;8.33;;;6.17;;
2305;SDS011;1161;51.922;8.896;2022-07-22T14:05:11;24.03;;;8.17;;
2305;SDS011;1161;51.922;8.896;2022-07-22T14:07:39;13.50;;;6.43;;
2305;SDS011;1161;51.922;8.896;2022-07-22T14:10:06;8.00;;;6.13;;
2305;SDS011;1161;51.922;8.896;2022-07-22T14:12:34;12.17;;;7.33;;
2305;SDS011;1161;51.922;8.896;2022-07-22T14:15:03;8.13;;;6.70;;
2305;SDS011;1161;51.922;8.896;2022-07-22T14:17:32;10.63;;;6.17;;
2305;SDS011;1161;51.922;8.896;2022-07-22T14:19:59;13.77;;;6.77;;
2305;SDS011;1161;51.922;8.896;2022-07-22T14:22:26;14.60;;;7.07;;
2305;SDS011;1161;51.922;8.896;2022-07-22T14:24:52;10.13;;;6.70;;
2305;SDS011;1161;51.922;8.896;2022-07-22T14:27:19;14.07;;;7.03;;
2305;SDS011;1161;51.922;8.896;2022-07-22T14:29:48;17.13;;;6.77;;
2305;SDS011;1161;51.922;8.896;2022-07-22T14:32:18;16.60;;;6.50;;
2305;SDS011;1161;51.922;8.896;2022-07-22T14:34:45;17.70;;;7.87;;
2305;SDS011;1161;51.922;8.896;2022-07-22T14:37:12;18.27;;;7.17;;
2305;SDS011;1161;51.922;8.896;2022-07-22T14:39:39;9.50;;;6.97;;
2305;SDS011;1161;51.922;8.896;2022-07-22T14:42:06;16.00;;;6.83;;
2305;SDS011;1161;51.922;8.896;2022-07-22T14:44:33;12.93;;;6.70;;
2305;SDS011;1161;51.922;8.896;2022-07-22T14:47:04;9.67;;;6.70;;
2305;SDS011;1161;51.922;8.896;2022-07-22T14:49:32;8.80;;;6.27;;
2305;SDS011;1161;51.922;8.896;2022-07-22T14:51:59;13.27;;;5.70;;
2305;SDS011;1161;51.922;8.896;2022-07-22T14:54:25;13.40;;;6.57;;
2305;SDS011;1161;51.922;8.896;2022-07-22T14:56:53;14.17;;;6.70;;
2305;SDS011;1161;51.922;8.896;2022-07-22T14:59:21;12.13;;;7.43;;
2305;SDS011;1161;51.922;8.896;2022-07-22T15:01:50;14.07;;;7.87;;
2305;SDS011;1161;51.922;8.896;2022-07-22T15:04:19;12.30;;;5.77;;
2305;SDS011;1161;51.922;8.896;2022-07-22T15:06:48;12.30;;;7.10;;
2305;SDS011;1161;51.922;8.896;2022-07-22T15:09:14;19.13;;;7.03;;